Bristol Bay Fax Sheet

SIGMETs

Area Forecast for Bristol Bay
BRISTOL BAY AH...VALID UNTIL 251600
...CLOUDS/WX...
PADL S SCT030 SCT-BKN050 TOP 080 INCRG LYRS TO FL200.
N PADL SCT070 SCT-BKN080 TOP 160 INCRG CI ABV. WDLY SCT -SHRA.
OTLK VALID 251600-252200...VFR.
...TURB...
NIL SIG.
...ICE AND FZLVL...
AFT 07Z SW PATG ISOL MOD ICEIC 110-FL180. MOVG N. ELSW NIL SIG.
FZLVL 080.

TAFs
PABE 250540Z 2506/2606 22008KT P6SM SCT035 BKN060
     FM251200 18005KT P6SM SCT005 BKN015
     FM251800 17006KT P6SM BKN020 OVC070
     FM252100 17010G18KT P6SM FEW025 BKN050=
PADL 250540Z 2506/2606 19008KT P6SM SCT030 BKN080
     FM251200 VRB04KT P6SM VCFG SCT005 BKN040
     FM251800 15005KT P6SM SCT007 BKN070
     FM252100 15011G20KT P6SM BKN050=
PAIL 250540Z 2506/2606 24010G20KT P6SM SCT050
     FM250900 26007KT P6SM SCT060=
PAKN 250540Z 2506/2606 23008KT P6SM SKC
     FM251200 VRB04KT 6SM BR SCT006
     FM252100 17011KT P6SM SCT030 BKN050=

Observations
PABE  AA 25 0953Z FEW037 OVC047             10          51  45 24008     012  80%  48    
PAIL  AA 25 0953Z BKN070                    10          51  48 26008     010  89%  48    
PAPH  AA 25 0956Z CLR                       10          46  43 09004     014  89%  44    
PAPM  AA 25 0956Z CLR                                   47  42 12004     012  83%  45    
PAPN  AA 25 0956Z CLR                       10          44  43 10004     014  96%  41    
PATG  AA 25 0956Z CLR                       10          45  42 24003     014  89%  45    
PADL  AA 25 0956Z CLR                       10          46  45 00003     012  96%  46    
PAIG  AA 25 0956Z CLR                       10          47  45 17006     012  93%  44    
PAII  AA 25 0956Z BKN002                   1/2 F        40  40 19004     016 100%  37    
PAMB  AA 25 0956Z CLR                       10          46  45 25005     012  96%  43    
PANW  AA 25 0956Z CLR                       10          47  43 21007     012  86%  43    
PAKN  MA 25 0954Z FEW002 FEW045 SCT200      10          46  45 16006     011  96%  42    
PAEH  AA 25 0955Z FEW014 BKN120             10          48  43 18013     011  83%  42    

Pilot Reports